createdAt,value
2018-06-23T00:01:39.816Z,20.90
2018-06-23T00:04:08.141Z,20.90
2018-06-23T00:06:36.491Z,20.90
2018-06-23T00:09:06.571Z,20.90
2018-06-23T00:11:34.853Z,20.80
2018-06-23T00:14:03.098Z,20.80
2018-06-23T00:16:31.410Z,20.70
2018-06-23T00:18:59.677Z,20.70
2018-06-23T00:21:27.924Z,20.70
2018-06-23T00:24:16.922Z,20.70
2018-06-23T00:26:45.176Z,20.70
2018-06-23T00:29:13.434Z,20.60
2018-06-23T00:31:41.690Z,20.60
2018-06-23T00:34:09.960Z,20.50
2018-06-23T00:36:38.393Z,20.50
2018-06-23T00:39:08.261Z,20.50
2018-06-23T00:41:36.622Z,20.50
2018-06-23T00:44:05.470Z,20.50
2018-06-23T00:46:33.700Z,20.50
2018-06-23T00:49:01.979Z,20.40
2018-06-23T00:51:30.281Z,20.40
2018-06-23T00:53:58.636Z,20.40
2018-06-23T00:56:26.913Z,20.30
2018-06-23T00:59:06.557Z,20.30
2018-06-23T01:01:34.824Z,20.20
2018-06-23T01:04:03.109Z,20.20
2018-06-23T01:06:31.381Z,20.20
2018-06-23T01:08:59.669Z,20.20
2018-06-23T01:11:27.928Z,20.20
2018-06-23T01:13:56.234Z,20.10
2018-06-23T01:16:24.524Z,20.10
2018-06-23T01:18:52.814Z,20.10
2018-06-23T01:21:21.126Z,20.10
2018-06-23T01:23:49.381Z,20.10
2018-06-23T01:26:17.684Z,20.00
2018-06-23T01:28:46.105Z,20.00
2018-06-23T01:31:14.422Z,20.00
2018-06-23T01:33:42.664Z,20.00
2018-06-23T01:36:10.913Z,19.90
2018-06-23T01:38:39.181Z,19.90
2018-06-23T01:41:07.466Z,19.90
2018-06-23T01:43:35.765Z,19.80
2018-06-23T01:46:04.039Z,19.80
2018-06-23T01:48:32.312Z,19.80
2018-06-23T01:51:00.584Z,19.80
2018-06-23T01:53:28.845Z,19.70
2018-06-23T01:55:57.097Z,19.70
2018-06-23T01:58:25.438Z,19.70
2018-06-23T02:00:53.714Z,19.70
2018-06-23T02:03:22.034Z,19.60
2018-06-23T02:05:50.342Z,19.60
2018-06-23T02:08:18.676Z,19.60
2018-06-23T02:10:47.033Z,19.50
2018-06-23T02:13:15.278Z,19.50
2018-06-23T02:15:48.985Z,19.50
2018-06-23T02:18:23.013Z,19.50
2018-06-23T02:20:56.560Z,19.40
2018-06-23T02:23:30.314Z,19.40
2018-06-23T02:26:04.052Z,19.40
2018-06-23T02:28:37.825Z,19.30
2018-06-23T02:31:11.561Z,19.30
2018-06-23T02:33:45.364Z,19.30
2018-06-23T02:36:13.620Z,19.20
2018-06-23T02:38:41.891Z,19.20
2018-06-23T02:41:10.152Z,19.20
2018-06-23T02:43:38.454Z,19.20
2018-06-23T02:46:06.786Z,19.10
2018-06-23T02:48:35.066Z,19.10
2018-06-23T02:51:03.317Z,19.10
2018-06-23T02:53:31.629Z,19.00
2018-06-23T02:56:00.125Z,19.00
2018-06-23T02:58:28.408Z,19.00
2018-06-23T03:00:56.709Z,19.00
2018-06-23T03:03:24.999Z,18.90
2018-06-23T03:05:53.428Z,18.90
2018-06-23T03:10:49.936Z,18.90
2018-06-23T03:13:18.232Z,18.80
2018-06-23T03:15:46.533Z,18.80
2018-06-23T03:18:14.821Z,18.80
2018-06-23T03:20:43.571Z,18.70
2018-06-23T03:23:11.832Z,18.70
2018-06-23T03:25:40.129Z,18.70
2018-06-23T03:28:08.447Z,18.70
2018-06-23T03:30:36.772Z,18.70
2018-06-23T03:33:05.281Z,18.70
2018-06-23T03:35:33.552Z,18.70
2018-06-23T03:38:01.813Z,18.60
2018-06-23T03:40:30.101Z,18.60
2018-06-23T03:42:58.376Z,18.60
2018-06-23T03:45:26.691Z,18.60
2018-06-23T03:47:54.928Z,18.60
2018-06-23T03:50:23.209Z,18.60
2018-06-23T03:52:51.456Z,18.50
2018-06-23T03:55:19.732Z,18.50
2018-06-23T03:57:48.062Z,18.50
2018-06-23T04:02:44.350Z,18.40
2018-06-23T04:05:12.598Z,18.40
2018-06-23T04:07:40.886Z,18.40
2018-06-23T04:10:09.195Z,18.40
2018-06-23T04:12:37.444Z,18.30
2018-06-23T04:15:05.882Z,18.40
2018-06-23T04:17:34.148Z,18.40
2018-06-23T04:20:02.612Z,18.30
2018-06-23T04:22:30.865Z,18.30
2018-06-23T04:24:59.140Z,18.30
2018-06-23T04:27:27.366Z,18.30
2018-06-23T04:29:55.653Z,18.30
2018-06-23T04:32:23.906Z,18.30
2018-06-23T04:34:52.200Z,18.20
2018-06-23T04:37:20.501Z,18.20
2018-06-23T04:39:48.802Z,18.20
2018-06-23T04:42:17.121Z,18.20
2018-06-23T04:44:45.392Z,18.20
2018-06-23T04:47:13.669Z,18.20
2018-06-23T04:49:41.974Z,18.20
2018-06-23T04:52:10.270Z,18.30
2018-06-23T04:54:38.560Z,18.40
2018-06-23T04:57:06.837Z,18.40
2018-06-23T04:59:35.125Z,18.30
2018-06-23T05:02:03.400Z,18.30
2018-06-23T05:04:31.666Z,18.30
2018-06-23T05:06:59.973Z,18.30
2018-06-23T05:09:28.251Z,18.30
2018-06-23T05:11:56.631Z,18.20
2018-06-23T05:14:24.907Z,18.20
2018-06-23T05:16:53.157Z,18.20
2018-06-23T05:21:49.859Z,18.10
2018-06-23T05:24:18.154Z,17.30
2018-06-23T05:26:46.516Z,17.10
2018-06-23T05:29:14.781Z,17.20
2018-06-23T05:31:43.026Z,17.20
2018-06-23T05:34:11.331Z,17.20
2018-06-23T05:39:08.834Z,17.30
2018-06-23T05:41:37.601Z,17.30
2018-06-23T05:44:05.868Z,17.30
2018-06-23T05:46:34.333Z,17.30
2018-06-23T05:49:02.652Z,17.40
2018-06-23T05:51:30.920Z,17.40
2018-06-23T05:53:59.230Z,17.40
2018-06-23T05:56:27.497Z,17.40
2018-06-23T05:58:56.014Z,17.40
2018-06-23T06:01:24.279Z,17.40
2018-06-23T06:03:52.546Z,17.20
2018-06-23T06:06:20.825Z,17.30
2018-06-23T06:08:49.066Z,17.40
2018-06-23T06:11:17.352Z,17.40
2018-06-23T06:13:45.636Z,17.50
2018-06-23T06:16:13.932Z,17.40
2018-06-23T06:18:42.234Z,17.40
2018-06-23T06:21:10.561Z,17.40
2018-06-23T06:23:38.914Z,17.40
2018-06-23T06:26:07.142Z,17.50
2018-06-23T06:28:35.424Z,17.50
2018-06-23T06:31:03.747Z,17.50
2018-06-23T06:33:32.097Z,17.60
2018-06-23T06:36:00.576Z,17.50
2018-06-23T06:38:28.926Z,17.50
2018-06-23T06:40:57.189Z,17.60
2018-06-23T06:43:25.477Z,17.60
2018-06-23T06:45:53.737Z,17.60
2018-06-23T06:48:22.000Z,17.60
2018-06-23T06:50:50.337Z,17.60
2018-06-23T06:53:18.781Z,17.50
2018-06-23T06:55:48.013Z,17.40
2018-06-23T06:58:16.281Z,17.40
2018-06-23T07:00:44.654Z,17.50
2018-06-23T07:03:12.918Z,17.50
2018-06-23T07:05:41.202Z,17.50
2018-06-23T07:08:09.498Z,17.60
2018-06-23T07:10:37.851Z,17.50
2018-06-23T07:13:06.133Z,17.50
2018-06-23T07:15:34.486Z,17.70
2018-06-23T07:18:02.733Z,17.70
2018-06-23T07:20:30.993Z,17.80
2018-06-23T07:22:59.403Z,17.90
2018-06-23T07:25:27.715Z,17.90
2018-06-23T07:27:56.080Z,17.90
2018-06-23T07:30:24.380Z,17.90
2018-06-23T07:32:52.641Z,17.90
2018-06-23T07:35:20.890Z,17.90
2018-06-23T07:37:49.188Z,17.90
2018-06-23T07:40:17.481Z,18.00
2018-06-23T07:42:45.745Z,17.80
2018-06-23T07:45:14.050Z,17.80
2018-06-23T07:47:42.299Z,17.80
2018-06-23T07:50:10.585Z,17.80
2018-06-23T07:52:38.834Z,17.70
2018-06-23T07:55:07.107Z,17.60
2018-06-23T07:57:35.420Z,17.80
2018-06-23T08:00:03.785Z,17.90
2018-06-23T08:02:32.069Z,17.80
2018-06-23T08:05:00.338Z,17.90
2018-06-23T08:07:28.628Z,18.00
2018-06-23T08:09:56.873Z,18.10
2018-06-23T08:12:25.149Z,18.10
2018-06-23T08:14:53.632Z,18.20
2018-06-23T08:17:21.893Z,18.20
2018-06-23T08:19:50.217Z,18.30
2018-06-23T08:22:18.461Z,18.10
2018-06-23T08:24:46.733Z,18.10
2018-06-23T08:27:15.999Z,18.20
2018-06-23T08:29:44.769Z,18.10
2018-06-23T08:32:13.085Z,18.20
2018-06-23T08:34:41.381Z,18.10
2018-06-23T08:37:09.661Z,18.20
2018-06-23T08:39:37.929Z,18.20
2018-06-23T08:42:06.286Z,18.30
2018-06-23T08:44:34.577Z,18.30
2018-06-23T08:47:02.846Z,18.40
2018-06-23T08:49:31.153Z,18.50
2018-06-23T08:51:59.475Z,18.30
2018-06-23T08:56:55.834Z,18.50
2018-06-23T08:59:24.035Z,18.60
2018-06-23T09:01:52.376Z,18.50
2018-06-23T09:04:20.581Z,18.50
2018-06-23T09:09:16.917Z,18.40
2018-06-23T09:11:45.197Z,18.40
2018-06-23T09:14:13.508Z,18.40
2018-06-23T09:16:41.792Z,18.50
2018-06-23T09:19:10.343Z,18.60
2018-06-23T09:21:38.954Z,18.70
2018-06-23T09:26:35.201Z,18.70
2018-06-23T09:29:03.498Z,18.60
2018-06-23T09:33:59.840Z,18.70
2018-06-23T09:36:28.120Z,18.90
2018-06-23T09:38:56.393Z,19.00
2018-06-23T09:41:24.758Z,19.00
2018-06-23T09:43:53.041Z,18.80
2018-06-23T09:46:21.377Z,18.90
2018-06-23T09:48:49.664Z,18.80
2018-06-23T09:51:17.942Z,18.80
2018-06-23T09:53:46.258Z,18.80
2018-06-23T09:56:14.561Z,18.80
2018-06-23T09:58:42.812Z,18.80
2018-06-23T10:01:11.085Z,18.80
2018-06-23T10:03:39.360Z,18.90
2018-06-23T10:06:07.667Z,18.90
2018-06-23T10:08:36.060Z,19.00
2018-06-23T10:11:04.188Z,19.00
2018-06-23T10:13:32.453Z,18.90
2018-06-23T10:16:00.799Z,18.90
2018-06-23T10:18:29.049Z,18.90
2018-06-23T10:20:57.429Z,18.90
2018-06-23T10:23:25.666Z,19.00
2018-06-23T10:25:53.926Z,19.10
2018-06-23T10:28:22.196Z,19.10
2018-06-23T10:30:50.441Z,19.10
2018-06-23T10:33:18.768Z,19.30
2018-06-23T10:35:47.042Z,19.30
2018-06-23T10:38:15.594Z,19.30
2018-06-23T10:40:43.777Z,19.40
2018-06-23T10:43:12.043Z,19.40
2018-06-23T10:45:40.425Z,19.10
2018-06-23T10:48:08.679Z,19.30
2018-06-23T10:50:36.940Z,19.30
2018-06-23T10:53:05.292Z,19.30
2018-06-23T10:55:33.652Z,19.50
2018-06-23T10:58:02.182Z,19.40
2018-06-23T11:00:30.457Z,19.30
2018-06-23T11:02:58.839Z,19.40
2018-06-23T11:05:27.212Z,19.40
2018-06-23T11:07:55.611Z,19.30
2018-06-23T11:10:24.297Z,19.40
2018-06-23T11:12:52.741Z,19.40
2018-06-23T11:15:21.413Z,19.50
2018-06-23T11:17:49.741Z,19.70
2018-06-23T11:20:18.269Z,19.80
2018-06-23T11:22:46.541Z,19.80
2018-06-23T11:25:14.828Z,20.00
2018-06-23T11:27:43.193Z,20.10
2018-06-23T11:30:11.522Z,20.10
2018-06-23T11:32:39.845Z,20.20
2018-06-23T11:35:08.225Z,20.10
2018-06-23T11:37:36.827Z,20.10
2018-06-23T11:40:05.494Z,20.10
2018-06-23T11:42:33.780Z,20.10
2018-06-23T11:45:02.091Z,20.20
2018-06-23T11:47:30.497Z,20.10
2018-06-23T11:49:59.075Z,20.10
2018-06-23T11:52:27.544Z,20.20
2018-06-23T11:54:55.873Z,20.30
2018-06-23T11:57:24.404Z,20.50
2018-06-23T11:59:52.709Z,20.60
2018-06-23T12:02:20.964Z,20.60
2018-06-23T12:04:49.468Z,20.60
2018-06-23T12:07:17.853Z,20.50
2018-06-23T12:09:46.242Z,20.40
2018-06-23T12:12:14.773Z,20.50
2018-06-23T12:14:43.164Z,20.50
2018-06-23T12:17:11.492Z,20.50
2018-06-23T12:19:39.730Z,20.70
2018-06-23T12:22:07.989Z,20.70
2018-06-23T12:24:36.249Z,20.70
2018-06-23T12:27:04.497Z,20.70
2018-06-23T12:29:32.771Z,20.70
2018-06-23T12:32:01.039Z,20.80
2018-06-23T12:34:29.312Z,20.80
2018-06-23T12:36:57.593Z,20.70
2018-06-23T12:39:25.840Z,20.60
2018-06-23T12:41:54.121Z,20.80
2018-06-23T12:44:22.448Z,20.80
2018-06-23T12:46:50.698Z,20.90
2018-06-23T12:49:18.948Z,21.00
2018-06-23T12:51:47.216Z,21.10
2018-06-23T12:54:15.485Z,21.20
2018-06-23T12:56:43.795Z,21.10
2018-06-23T12:59:12.026Z,21.00
2018-06-23T13:04:08.334Z,21.20
2018-06-23T13:06:36.581Z,21.20
2018-06-23T13:09:08.137Z,21.20
2018-06-23T13:11:36.446Z,21.30
2018-06-23T13:14:04.993Z,21.10
2018-06-23T13:16:33.275Z,21.20
2018-06-23T13:19:01.773Z,21.30
2018-06-23T13:21:30.244Z,21.30
2018-06-23T13:26:26.551Z,21.50
2018-06-23T13:28:54.857Z,21.30
2018-06-23T13:31:23.118Z,21.30
2018-06-23T13:33:51.421Z,21.20
2018-06-23T13:36:19.699Z,21.30
2018-06-23T13:38:47.975Z,21.30
2018-06-23T13:41:16.293Z,21.20
2018-06-23T13:43:44.546Z,21.30
2018-06-23T13:46:12.824Z,21.40
2018-06-23T13:48:41.147Z,21.20
2018-06-23T13:51:09.354Z,21.40
2018-06-23T13:53:37.669Z,21.40
2018-06-23T13:56:05.924Z,21.30
2018-06-23T13:58:34.177Z,21.40
2018-06-23T14:01:02.460Z,21.40
2018-06-23T14:03:30.737Z,21.50
2018-06-23T14:05:59.052Z,21.60
2018-06-23T14:08:27.332Z,21.60
2018-06-23T14:10:55.706Z,21.70
2018-06-23T14:13:23.960Z,21.70
2018-06-23T14:15:52.349Z,21.70
2018-06-23T14:18:20.632Z,21.60
2018-06-23T14:20:49.144Z,21.70
2018-06-23T14:23:17.462Z,21.70
2018-06-23T14:25:45.714Z,21.70
2018-06-23T14:28:14.013Z,21.80
2018-06-23T14:30:42.295Z,21.90
2018-06-23T14:33:10.609Z,21.90
2018-06-23T14:35:38.938Z,21.80
2018-06-23T14:38:07.324Z,21.80
2018-06-23T14:40:35.660Z,21.60
2018-06-23T14:43:04.152Z,21.60
2018-06-23T14:45:32.396Z,21.60
2018-06-23T14:48:00.708Z,21.60
2018-06-23T14:50:28.978Z,21.70
2018-06-23T14:52:57.273Z,21.60
2018-06-23T14:55:25.782Z,21.70
2018-06-23T14:57:54.762Z,21.70
2018-06-23T15:00:23.064Z,21.60
2018-06-23T15:02:51.392Z,21.60
2018-06-23T15:05:19.824Z,21.60
2018-06-23T15:07:48.496Z,21.70
2018-06-23T15:10:28.212Z,21.80
2018-06-23T15:13:07.866Z,21.50
2018-06-23T15:15:36.147Z,21.40
2018-06-23T15:18:04.488Z,21.50
2018-06-23T15:20:33.018Z,21.50
2018-06-23T15:23:01.757Z,21.60
2018-06-23T15:25:30.019Z,21.80
2018-06-23T15:27:58.304Z,21.70
2018-06-23T15:30:26.606Z,21.80
2018-06-23T15:32:55.017Z,21.80
2018-06-23T15:35:23.499Z,21.80
2018-06-23T15:37:51.949Z,21.70
2018-06-23T15:40:20.240Z,21.80
2018-06-23T15:42:48.693Z,21.90
2018-06-23T15:45:17.008Z,21.80
2018-06-23T15:47:45.292Z,21.70
2018-06-23T15:50:13.656Z,21.80
2018-06-23T15:52:42.093Z,21.90
2018-06-23T15:55:10.466Z,22.00
2018-06-23T15:57:38.752Z,21.90
2018-06-23T16:00:07.025Z,21.80
2018-06-23T16:02:35.350Z,21.90
2018-06-23T16:05:03.633Z,21.90
2018-06-23T16:07:31.941Z,22.00
2018-06-23T16:10:00.378Z,22.00
2018-06-23T16:12:28.780Z,22.10
2018-06-23T16:14:57.109Z,22.10
2018-06-23T16:17:25.350Z,21.90
2018-06-23T16:19:53.617Z,21.90
2018-06-23T16:22:21.886Z,22.00
2018-06-23T16:27:18.208Z,21.90
2018-06-23T16:29:46.611Z,21.90
2018-06-23T16:32:14.945Z,21.90
2018-06-23T16:34:43.378Z,21.90
2018-06-23T16:37:11.575Z,22.10
2018-06-23T16:39:39.874Z,22.10
2018-06-23T16:42:08.227Z,22.20
2018-06-23T16:44:36.472Z,22.30
2018-06-23T16:47:05.045Z,22.20
2018-06-23T16:49:33.369Z,22.30
2018-06-23T16:52:01.701Z,22.30
2018-06-23T16:54:29.957Z,22.40
2018-06-23T16:56:58.325Z,22.40
2018-06-23T16:59:26.610Z,22.30
2018-06-23T17:01:54.882Z,22.30
2018-06-23T17:04:23.854Z,22.20
2018-06-23T17:06:52.057Z,22.20
2018-06-23T17:09:20.336Z,22.10
2018-06-23T17:11:48.672Z,22.20
2018-06-23T17:14:17.051Z,22.20
2018-06-23T17:16:45.356Z,22.00
2018-06-23T17:19:13.674Z,22.00
2018-06-23T17:21:41.973Z,22.00
2018-06-23T17:24:10.244Z,22.10
2018-06-23T17:26:38.505Z,21.80
2018-06-23T17:29:06.849Z,21.70
2018-06-23T17:31:35.160Z,21.70
2018-06-23T17:34:03.433Z,22.00
2018-06-23T17:36:31.898Z,22.10
2018-06-23T17:39:00.605Z,22.10
2018-06-23T17:41:29.184Z,22.10
2018-06-23T17:43:57.448Z,21.90
2018-06-23T17:46:25.779Z,21.80
2018-06-23T17:48:54.371Z,22.10
2018-06-23T17:51:22.845Z,22.40
2018-06-23T17:53:51.108Z,22.70
2018-06-23T17:56:19.380Z,23.00
2018-06-23T17:58:48.109Z,23.50
2018-06-23T18:01:16.403Z,23.90
2018-06-23T18:03:44.697Z,24.10
2018-06-23T18:06:12.963Z,24.20
2018-06-23T18:08:41.296Z,24.40
2018-06-23T18:11:09.599Z,24.60
2018-06-23T18:13:37.856Z,24.40
2018-06-23T18:16:06.255Z,24.50
2018-06-23T18:18:34.501Z,24.60
2018-06-23T18:21:02.907Z,24.70
2018-06-23T18:23:31.218Z,24.80
2018-06-23T18:25:59.529Z,24.60
2018-06-23T18:28:28.180Z,24.40
2018-06-23T18:30:56.444Z,24.60
2018-06-23T18:33:24.764Z,24.50
2018-06-23T18:35:53.065Z,24.50
2018-06-23T18:38:21.360Z,24.60
2018-06-23T18:40:49.637Z,24.70
2018-06-23T18:43:17.947Z,24.90
2018-06-23T18:45:46.234Z,24.90
2018-06-23T18:48:14.531Z,24.90
2018-06-23T18:50:42.829Z,24.80
2018-06-23T18:53:11.113Z,24.60
2018-06-23T18:55:39.740Z,24.70
2018-06-23T18:58:08.056Z,24.70
2018-06-23T19:00:36.417Z,24.40
2018-06-23T19:03:04.748Z,24.20
2018-06-23T19:05:33.053Z,24.40
2018-06-23T19:08:01.378Z,24.40
2018-06-23T19:10:29.669Z,24.30
2018-06-23T19:12:58.010Z,24.50
2018-06-23T19:15:26.308Z,24.60
2018-06-23T19:17:54.661Z,24.60
2018-06-23T19:20:23.000Z,24.60
2018-06-23T19:22:51.238Z,24.60
2018-06-23T19:25:19.501Z,24.60
2018-06-23T19:27:47.757Z,24.50
2018-06-23T19:30:16.024Z,24.50
2018-06-23T19:32:44.332Z,24.50
2018-06-23T19:35:12.626Z,24.50
2018-06-23T19:37:40.912Z,24.40
2018-06-23T19:40:09.196Z,24.50
2018-06-23T19:42:37.496Z,24.40
2018-06-23T19:47:33.748Z,24.20
2018-06-23T19:50:02.017Z,24.40
2018-06-23T19:52:30.303Z,24.40
2018-06-23T19:54:58.576Z,24.40
2018-06-23T19:57:27.620Z,24.30
2018-06-23T19:59:55.928Z,24.30
2018-06-23T20:02:24.253Z,24.30
2018-06-23T20:04:52.610Z,24.30
2018-06-23T20:07:20.962Z,24.30
2018-06-23T20:09:49.263Z,24.20
2018-06-23T20:14:45.266Z,24.30
2018-06-23T20:17:13.519Z,24.20
2018-06-23T20:19:41.792Z,24.10
2018-06-23T20:22:10.192Z,24.00
2018-06-23T20:24:38.378Z,24.00
2018-06-23T20:27:06.653Z,24.00
2018-06-23T20:29:35.153Z,24.00
2018-06-23T20:34:31.494Z,23.80
2018-06-23T20:36:59.761Z,23.80
2018-06-23T20:39:28.059Z,23.70
2018-06-23T20:41:56.304Z,23.80
2018-06-23T20:44:24.588Z,23.80
2018-06-23T20:46:52.898Z,23.80
2018-06-23T20:49:21.632Z,23.80
2018-06-23T20:51:49.900Z,23.70
2018-06-23T20:54:18.197Z,23.70
2018-06-23T20:56:46.475Z,23.70
2018-06-23T20:59:14.753Z,23.70
2018-06-23T21:01:43.307Z,23.60
2018-06-23T21:04:11.565Z,23.60
2018-06-23T21:06:39.871Z,23.60
2018-06-23T21:09:09.516Z,23.60
2018-06-23T21:11:37.852Z,23.50
2018-06-23T21:14:06.287Z,23.40
2018-06-23T21:16:34.869Z,23.40
2018-06-23T21:19:03.128Z,23.40
2018-06-23T21:23:59.447Z,23.50
2018-06-23T21:26:27.696Z,23.40
2018-06-23T21:28:55.984Z,23.40
2018-06-23T21:31:24.232Z,23.40
2018-06-23T21:33:52.496Z,23.40
2018-06-23T21:36:20.823Z,23.30
2018-06-23T21:38:49.088Z,23.30
2018-06-23T21:41:17.379Z,23.30
2018-06-23T21:43:45.744Z,23.20
2018-06-23T21:46:14.064Z,23.20
2018-06-23T21:48:42.328Z,23.30
2018-06-23T21:51:10.616Z,23.20
2018-06-23T21:53:38.931Z,23.20
2018-06-23T21:56:07.225Z,23.10
2018-06-23T21:58:35.525Z,23.10
2018-06-23T22:01:03.838Z,23.10
2018-06-23T22:03:32.079Z,23.10
2018-06-23T22:06:00.388Z,23.10
2018-06-23T22:08:28.629Z,23.00
2018-06-23T22:10:56.901Z,23.00
2018-06-23T22:13:25.170Z,23.00
2018-06-23T22:15:53.486Z,23.00
2018-06-23T22:18:21.764Z,22.90
2018-06-23T22:20:50.037Z,22.90
2018-06-23T22:23:18.905Z,22.90
2018-06-23T22:25:47.181Z,22.90
2018-06-23T22:28:15.491Z,22.90
2018-06-23T22:30:43.760Z,22.80
2018-06-23T22:33:12.005Z,22.80
2018-06-23T22:35:40.296Z,22.70
2018-06-23T22:38:08.537Z,22.70
2018-06-23T22:40:36.824Z,22.70
2018-06-23T22:43:05.172Z,22.70
2018-06-23T22:45:33.488Z,22.70
2018-06-23T22:48:01.757Z,22.60
2018-06-23T22:50:29.989Z,22.60
2018-06-23T22:52:58.255Z,22.60
2018-06-23T22:55:26.525Z,22.50
2018-06-23T22:57:54.841Z,22.50
2018-06-23T23:00:23.116Z,22.50
2018-06-23T23:02:51.393Z,22.40
2018-06-23T23:05:19.676Z,22.40
2018-06-23T23:07:47.964Z,22.40
2018-06-23T23:10:16.241Z,22.30
2018-06-23T23:12:44.515Z,22.30
2018-06-23T23:15:12.776Z,22.30
2018-06-23T23:17:41.053Z,22.20
2018-06-23T23:20:09.333Z,22.20
2018-06-23T23:22:37.593Z,22.20
2018-06-23T23:25:05.852Z,22.20
2018-06-23T23:27:34.108Z,22.10
2018-06-23T23:30:02.582Z,22.10
2018-06-23T23:32:30.858Z,22.10
2018-06-23T23:34:59.112Z,22.00
2018-06-23T23:37:27.463Z,22.00
2018-06-23T23:39:55.760Z,22.00
2018-06-23T23:42:24.069Z,21.90
2018-06-23T23:44:52.337Z,21.90
2018-06-23T23:47:20.641Z,21.90
2018-06-23T23:49:48.931Z,21.90
2018-06-23T23:52:17.197Z,21.80
2018-06-23T23:54:45.999Z,21.80
2018-06-23T23:57:14.259Z,21.80
2018-06-23T23:59:42.546Z,21.70
